Time;durP1;ratioP1;P1;durP2;ratioP2;P2;SDS_P1;SDS_P2;PMS_P1;PMS_P2;Temp;Humidity;BMP_temperature;BMP_pressure;BME280_temperature;BME280_humidity;BME280_pressure;Samples;Min_cycle;Max_cycle;Signal;HPM_P1;HPM_P2
2022/11/08 00:02:42;;;;;;;1.48;1.38;;;10.10;99.90;;;;;;7264589;19;2004379;-79
2022/11/08 00:16:05;;;;;;;1.75;1.50;;;10.00;99.90;;;;;;7368174;19;20317;-79
2022/11/08 00:18:30;;;;;;;2.63;1.50;;;10.00;99.90;;;;;;7367730;19;20994;-79
2022/11/08 00:21:00;;;;;;;2.00;1.80;;;10.00;99.90;;;;;;7367492;19;20389;-79
2022/11/08 00:23:25;;;;;;;1.75;1.65;;;9.90;99.90;;;;;;7367223;19;21087;-79
2022/11/08 00:25:54;;;;;;;2.72;1.58;;;9.90;99.90;;;;;;7367867;19;20386;-79
2022/11/08 00:28:19;;;;;;;1.95;1.52;;;9.90;99.90;;;;;;7367358;19;20859;-79
2022/11/08 00:30:45;;;;;;;2.30;1.67;;;9.80;99.90;;;;;;7366824;19;20361;-79
2022/11/08 00:33:11;;;;;;;5.70;1.80;;;9.80;99.90;;;;;;7367164;19;20317;-79
2022/11/08 00:35:36;;;;;;;1.90;1.37;;;9.80;99.90;;;;;;7367954;19;20332;-79
2022/11/08 00:38:03;;;;;;;1.90;1.50;;;9.80;99.90;;;;;;7367483;19;20336;-79
2022/11/08 00:40:28;;;;;;;3.00;1.40;;;9.70;99.90;;;;;;7368013;19;21001;-80
2022/11/08 00:42:54;;;;;;;2.83;1.57;;;9.80;99.90;;;;;;7376749;19;20349;-80
2022/11/08 00:45:19;;;;;;;2.40;1.73;;;9.70;99.90;;;;;;7375946;19;20441;-80
2022/11/08 00:47:45;;;;;;;2.95;1.35;;;9.70;99.90;;;;;;7368755;19;20336;-79
2022/11/08 00:50:10;;;;;;;1.97;1.60;;;9.70;99.90;;;;;;7366734;19;20677;-79
2022/11/08 00:52:36;;;;;;;1.95;1.70;;;9.80;99.90;;;;;;7366802;19;20349;-79
2022/11/08 00:55:02;;;;;;;2.60;1.40;;;9.70;99.90;;;;;;7365938;19;20316;-79
2022/11/08 00:57:27;;;;;;;3.30;1.63;;;9.70;99.90;;;;;;7366616;19;20320;-79
2022/11/08 00:59:53;;;;;;;3.85;1.75;;;9.70;99.90;;;;;;7366055;19;20420;-78
2022/11/08 01:02:18;;;;;;;2.83;1.90;;;9.70;99.90;;;;;;7371727;19;20657;-79
2022/11/08 01:04:44;;;;;;;2.27;1.50;;;9.70;99.90;;;;;;7372912;19;20350;-79
2022/11/08 01:07:09;;;;;;;1.70;1.60;;;9.70;99.90;;;;;;7374239;19;20320;-79
2022/11/08 01:09:35;;;;;;;2.20;1.50;;;9.70;99.90;;;;;;7373220;19;20396;-79
2022/11/08 01:23:09;;;;;;;2.65;1.50;;;9.60;99.90;;;;;;7225995;19;2004277;-79
2022/11/08 01:25:39;;;;;;;3.13;1.40;;;9.60;99.90;;;;;;7268232;19;2004707;-80
2022/11/08 01:28:05;;;;;;;3.28;1.75;;;9.50;99.90;;;;;;7373686;19;20372;-80
2022/11/08 01:30:30;;;;;;;2.73;1.50;;;9.50;99.90;;;;;;7373544;19;20656;-79
2022/11/08 01:32:56;;;;;;;2.63;1.50;;;9.40;99.90;;;;;;7372991;19;20332;-79
2022/11/08 01:35:22;;;;;;;1.75;1.63;;;9.40;99.90;;;;;;7371045;19;20360;-81
2022/11/08 01:37:47;;;;;;;1.60;1.50;;;9.50;99.90;;;;;;7373290;19;20456;-80
2022/11/08 01:40:13;;;;;;;4.43;1.75;;;9.40;99.90;;;;;;7371746;19;20366;-79
2022/11/08 01:42:38;;;;;;;2.70;1.60;;;9.40;99.90;;;;;;7372504;19;20464;-79
2022/11/08 01:45:05;;;;;;;1.87;1.47;;;9.50;99.90;;;;;;7370584;19;20952;-79
2022/11/08 01:47:31;;;;;;;2.47;1.53;;;9.50;99.90;;;;;;7371267;19;20408;-79
2022/11/08 01:50:11;;;;;;;1.90;1.60;;;9.40;99.90;;;;;;7370625;19;21124;-79
2022/11/08 01:52:44;;;;;;;1.80;1.33;;;9.40;99.90;;;;;;7370326;19;20328;-79
2022/11/08 01:55:12;;;;;;;1.90;1.50;;;9.40;99.90;;;;;;7268229;19;2019322;-80
2022/11/08 01:57:43;;;;;;;1.88;1.50;;;9.40;99.90;;;;;;7373001;19;20340;-80
2022/11/08 02:00:09;;;;;;;1.80;1.42;;;9.40;99.90;;;;;;7369926;19;20511;-79
2022/11/08 02:02:35;;;;;;;1.92;1.75;;;9.40;99.90;;;;;;7373205;19;20328;-79
2022/11/08 02:05:02;;;;;;;2.00;1.30;;;9.40;99.90;;;;;;7372116;19;20305;-79
2022/11/08 02:07:28;;;;;;;1.50;1.40;;;9.40;99.90;;;;;;7371974;19;20323;-79
2022/11/08 02:09:53;;;;;;;1.50;1.40;;;9.40;99.90;;;;;;7372213;19;20429;-79
2022/11/08 02:12:19;;;;;;;2.70;1.70;;;9.40;99.90;;;;;;7370060;19;20361;-79
2022/11/08 02:22:11;;;;;;;2.80;1.40;;;9.30;99.90;;;;;;7165228;19;2004493;-80
2022/11/08 02:24:36;;;;;;;3.53;1.67;;;9.30;99.90;;;;;;7267054;19;2018758;-79
2022/11/08 02:27:02;;;;;;;1.95;1.27;;;9.20;99.90;;;;;;7372514;19;20352;-79
2022/11/08 02:29:29;;;;;;;1.30;1.20;;;9.20;99.90;;;;;;7373051;19;20329;-79
2022/11/08 02:31:55;;;;;;;2.60;1.63;;;9.20;99.90;;;;;;7371412;19;20371;-79
2022/11/08 02:34:29;;;;;;;2.03;1.67;;;9.20;99.90;;;;;;7369306;19;20313;-79
2022/11/08 02:36:55;;;;;;;1.80;1.50;;;9.20;99.90;;;;;;7371317;19;20858;-80
2022/11/08 02:39:21;;;;;;;2.47;1.40;;;9.20;99.90;;;;;;7371049;19;20329;-80
2022/11/08 02:41:46;;;;;;;1.25;1.15;;;9.10;99.90;;;;;;7377852;19;20329;-79
2022/11/08 02:44:12;;;;;;;1.70;1.20;;;9.10;99.90;;;;;;7376051;19;20296;-79
2022/11/08 02:46:37;;;;;;;2.78;1.45;;;9.00;99.90;;;;;;7376556;19;20416;-79
2022/11/08 02:49:03;;;;;;;4.87;1.60;;;9.00;99.90;;;;;;7373303;19;20339;-80
2022/11/08 02:51:29;;;;;;;2.17;1.42;;;9.00;99.90;;;;;;7371824;19;20376;-79
2022/11/08 02:53:54;;;;;;;1.20;1.10;;;8.90;99.90;;;;;;7374049;19;21255;-79
2022/11/08 02:56:20;;;;;;;1.60;1.27;;;8.90;99.90;;;;;;7372717;19;20360;-79
2022/11/08 02:58:45;;;;;;;1.20;1.10;;;8.90;99.90;;;;;;7372180;19;20339;-79
2022/11/08 03:01:11;;;;;;;3.83;1.50;;;8.80;99.90;;;;;;7370746;19;20695;-79
2022/11/08 03:03:36;;;;;;;1.20;1.00;;;8.80;99.90;;;;;;7368681;19;20371;-79
2022/11/08 03:06:02;;;;;;;2.03;1.23;;;8.80;99.90;;;;;;7368588;19;20334;-79
2022/11/08 03:08:27;;;;;;;1.60;1.20;;;8.80;99.90;;;;;;7369315;19;20999;-79
2022/11/08 03:10:53;;;;;;;1.30;1.20;;;8.80;99.90;;;;;;7368625;19;20357;-79
2022/11/08 03:13:18;;;;;;;1.00;0.90;;;8.80;99.90;;;;;;7368606;19;21116;-79
2022/11/08 03:15:44;;;;;;;1.57;1.30;;;8.80;99.90;;;;;;7370041;19;20341;-79
2022/11/08 03:18:10;;;;;;;1.50;1.10;;;8.70;99.90;;;;;;7369511;19;20331;-79
2022/11/08 03:20:35;;;;;;;2.90;0.97;;;8.70;99.90;;;;;;7369552;19;20324;-79
2022/11/08 03:23:05;;;;;;;1.27;1.17;;;8.70;99.90;;;;;;7368073;19;20360;-79
2022/11/08 03:25:30;;;;;;;1.45;1.10;;;8.70;99.90;;;;;;7368257;19;20349;-79
2022/11/08 03:28:03;;;;;;;1.20;1.10;;;8.60;99.90;;;;;;7369300;19;20704;-79
2022/11/08 03:30:29;;;;;;;2.47;1.30;;;8.60;99.90;;;;;;7368721;19;20350;-79
2022/11/08 03:32:54;;;;;;;1.80;1.20;;;8.50;99.90;;;;;;7369137;19;20412;-80
2022/11/08 03:35:20;;;;;;;1.95;1.40;;;8.50;99.90;;;;;;7369393;19;20316;-79
2022/11/08 03:37:50;;;;;;;1.47;1.00;;;8.40;99.90;;;;;;7369465;19;20317;-79
2022/11/08 03:40:15;;;;;;;1.48;1.38;;;8.50;99.90;;;;;;7369139;19;20305;-79
2022/11/08 03:42:41;;;;;;;1.77;1.40;;;8.50;99.90;;;;;;7367940;19;20364;-79
2022/11/08 03:45:07;;;;;;;2.25;1.50;;;8.40;99.90;;;;;;7367503;19;20342;-80
2022/11/08 03:47:37;;;;;;;3.57;1.37;;;8.40;99.90;;;;;;7368644;19;20965;-79
2022/11/08 03:50:03;;;;;;;1.48;1.38;;;8.30;99.90;;;;;;7368014;19;21354;-79
2022/11/08 03:52:29;;;;;;;1.67;1.20;;;8.30;99.90;;;;;;7368204;19;20321;-79
2022/11/08 03:54:54;;;;;;;1.20;1.10;;;8.30;99.90;;;;;;7369135;19;20669;-79
2022/11/08 03:57:20;;;;;;;2.03;1.20;;;8.30;99.90;;;;;;7368498;19;20449;-79
2022/11/08 03:59:45;;;;;;;1.43;1.33;;;8.20;99.90;;;;;;7368552;19;20312;-79
2022/11/08 04:02:11;;;;;;;1.23;1.13;;;8.30;99.90;;;;;;7368444;19;20332;-79
2022/11/08 04:04:36;;;;;;;3.10;1.30;;;8.20;99.90;;;;;;7367634;19;20343;-79
2022/11/08 04:07:02;;;;;;;1.30;1.20;;;8.20;99.90;;;;;;7369729;19;20856;-80
2022/11/08 04:09:27;;;;;;;2.40;1.50;;;8.20;99.90;;;;;;7368273;19;20324;-79
2022/11/08 04:21:17;;;;;;;1.40;1.30;;;8.00;99.90;;;;;;7265476;19;2004856;-79
2022/11/08 04:22:52;;;;;;;1.27;1.17;;;7.90;99.90;;;;;;7265160;19;2004296;-80
2022/11/08 04:25:18;;;;;;;1.35;1.20;;;7.80;99.90;;;;;;7368606;19;21312;-79
2022/11/08 04:27:43;;;;;;;1.60;1.40;;;7.70;99.90;;;;;;7368198;19;20311;-79
2022/11/08 04:30:09;;;;;;;1.48;1.25;;;7.80;99.90;;;;;;7367579;19;20345;-79
2022/11/08 04:32:35;;;;;;;1.80;1.40;;;7.80;99.90;;;;;;7370131;19;20325;-79
2022/11/08 04:35:00;;;;;;;1.30;1.20;;;7.70;99.90;;;;;;7375226;19;20346;-79
2022/11/08 04:37:26;;;;;;;1.77;1.40;;;7.70;99.90;;;;;;7371060;19;20327;-79
2022/11/08 04:39:52;;;;;;;1.40;1.30;;;7.70;99.90;;;;;;7367469;19;20871;-80
2022/11/08 04:42:17;;;;;;;2.00;1.73;;;7.70;99.90;;;;;;7367300;19;20316;-79
2022/11/08 04:44:43;;;;;;;2.95;2.33;;;7.60;99.90;;;;;;7366806;19;20312;-79
2022/11/08 04:47:09;;;;;;;3.40;2.30;;;7.60;99.90;;;;;;7367230;19;20375;-79
2022/11/08 04:49:34;;;;;;;3.30;1.70;;;7.60;99.90;;;;;;7366671;19;20335;-79
2022/11/08 04:52:00;;;;;;;1.60;1.50;;;7.60;99.90;;;;;;7368438;19;20404;-79
2022/11/08 04:54:25;;;;;;;2.67;1.48;;;7.60;99.90;;;;;;7365860;19;21158;-80
2022/11/08 04:56:51;;;;;;;2.85;1.80;;;7.50;99.90;;;;;;7367463;19;20735;-80
2022/11/08 04:59:16;;;;;;;1.50;1.40;;;7.50;99.90;;;;;;7367737;19;20313;-80
2022/11/08 05:01:42;;;;;;;1.52;1.42;;;7.50;99.90;;;;;;7372361;19;20792;-80
2022/11/08 05:04:08;;;;;;;2.00;1.50;;;7.50;99.90;;;;;;7372847;19;20352;-80
2022/11/08 05:06:33;;;;;;;1.70;1.23;;;7.50;99.90;;;;;;7369001;19;20333;-80
2022/11/08 05:08:59;;;;;;;2.60;1.30;;;7.50;99.90;;;;;;7366590;19;20369;-80
2022/11/08 05:11:25;;;;;;;1.30;1.20;;;7.50;99.90;;;;;;7365331;19;21308;-79
2022/11/08 05:13:51;;;;;;;1.80;1.48;;;7.50;99.90;;;;;;7366104;19;20334;-79
2022/11/08 05:16:20;;;;;;;1.93;1.77;;;7.40;99.90;;;;;;7366754;19;20387;-79
2022/11/08 05:18:46;;;;;;;1.98;1.73;;;7.30;99.90;;;;;;7365807;19;20344;-79
2022/11/08 05:24:00;;;;;;;2.58;2.10;;;7.30;99.90;;;;;;7262408;19;2005915;-79
2022/11/08 05:26:26;;;;;;;1.95;1.77;;;7.30;99.90;;;;;;7366199;19;20421;-79
2022/11/08 05:28:51;;;;;;;3.05;2.22;;;7.20;99.90;;;;;;7366089;19;20348;-78
2022/11/08 05:31:17;;;;;;;1.58;1.48;;;7.20;99.90;;;;;;7365547;19;20317;-79
2022/11/08 05:33:43;;;;;;;2.20;1.80;;;7.20;99.90;;;;;;7365829;19;20321;-79
2022/11/08 05:36:10;;;;;;;1.55;1.42;;;7.20;99.90;;;;;;7364902;19;20332;-79
2022/11/08 05:38:35;;;;;;;1.67;1.58;;;7.20;99.90;;;;;;7364353;19;20313;-79
2022/11/08 05:41:04;;;;;;;2.30;2.10;;;7.20;99.90;;;;;;7365716;19;20317;-79
2022/11/08 05:43:30;;;;;;;2.90;2.50;;;7.20;99.90;;;;;;7363931;19;20996;-79
2022/11/08 05:45:55;;;;;;;2.27;2.10;;;7.30;99.90;;;;;;7365401;19;20305;-79
2022/11/08 05:48:21;;;;;;;1.90;1.80;;;7.20;99.90;;;;;;7365050;19;20403;-79
2022/11/08 05:50:47;;;;;;;2.97;1.93;;;7.20;99.90;;;;;;7372886;19;20340;-79
2022/11/08 05:53:12;;;;;;;1.60;1.50;;;7.10;99.90;;;;;;7372280;19;20340;-78
2022/11/08 05:55:38;;;;;;;1.65;1.55;;;7.10;99.90;;;;;;7371249;19;20341;-79
2022/11/08 05:58:03;;;;;;;1.90;1.60;;;7.10;99.90;;;;;;7371342;19;21391;-79
2022/11/08 06:00:29;;;;;;;2.40;1.80;;;7.20;99.90;;;;;;7370664;19;20349;-79
2022/11/08 06:02:54;;;;;;;1.70;1.60;;;7.10;99.90;;;;;;7369702;19;20332;-79
2022/11/08 06:05:20;;;;;;;2.00;1.67;;;7.10;99.90;;;;;;7369010;19;20346;-79
2022/11/08 06:07:46;;;;;;;1.40;1.30;;;7.10;99.90;;;;;;7368046;19;20328;-79
2022/11/08 06:10:11;;;;;;;1.60;1.50;;;7.10;99.90;;;;;;7368968;19;20320;-80
2022/11/08 06:12:37;;;;;;;1.73;1.60;;;7.10;99.90;;;;;;7370492;19;20356;-79
2022/11/08 06:15:04;;;;;;;1.70;1.60;;;7.10;99.90;;;;;;7369647;19;20866;-78
2022/11/08 06:17:30;;;;;;;2.35;1.90;;;7.10;99.90;;;;;;7367524;19;20801;-79
2022/11/08 06:19:55;;;;;;;1.70;1.60;;;7.10;99.90;;;;;;7366720;19;20335;-79
2022/11/08 06:22:21;;;;;;;1.90;1.70;;;7.10;99.90;;;;;;7367280;19;20356;-79
2022/11/08 06:24:46;;;;;;;1.75;1.65;;;7.10;99.90;;;;;;7365368;19;20329;-79
2022/11/08 06:27:13;;;;;;;3.33;1.70;;;7.20;99.90;;;;;;7364577;19;20368;-79
2022/11/08 06:29:41;;;;;;;2.00;1.80;;;7.20;99.90;;;;;;7367114;19;20344;-80
2022/11/08 06:32:10;;;;;;;3.35;2.40;;;7.10;99.90;;;;;;7372057;19;20411;-80
2022/11/08 06:34:35;;;;;;;3.50;2.75;;;7.10;99.90;;;;;;7373545;19;20412;-79
2022/11/08 06:37:01;;;;;;;2.10;2.00;;;7.10;99.90;;;;;;7373029;19;20313;-80
2022/11/08 06:39:27;;;;;;;2.80;2.50;;;7.10;99.90;;;;;;7369922;19;20324;-80
2022/11/08 06:41:52;;;;;;;2.85;2.40;;;7.10;99.90;;;;;;7369619;19;20328;-79
2022/11/08 06:44:18;;;;;;;2.77;2.33;;;7.10;99.90;;;;;;7369505;19;20317;-80
2022/11/08 06:46:43;;;;;;;3.00;2.00;;;7.10;99.90;;;;;;7373217;19;20297;-80
2022/11/08 06:49:09;;;;;;;1.90;1.80;;;7.10;99.90;;;;;;7383319;19;20345;-72
2022/11/08 06:51:35;;;;;;;2.33;1.97;;;7.10;99.90;;;;;;7365308;19;20337;-73
2022/11/08 06:54:02;;;;;;;3.05;2.00;;;7.10;99.90;;;;;;7369030;19;20349;-73
2022/11/08 06:56:28;;;;;;;2.00;1.90;;;7.20;99.90;;;;;;7366849;19;20317;-72
2022/11/08 06:58:53;;;;;;;3.60;2.90;;;7.30;99.90;;;;;;7367001;19;20323;-71
2022/11/08 07:01:19;;;;;;;2.87;2.47;;;7.30;99.90;;;;;;7364251;19;20941;-71
2022/11/08 07:03:44;;;;;;;3.27;2.67;;;7.40;99.90;;;;;;7368570;19;20352;-77
2022/11/08 07:06:10;;;;;;;2.85;2.40;;;7.40;99.90;;;;;;7371023;19;20353;-76
2022/11/08 07:08:35;;;;;;;2.63;2.10;;;7.50;99.90;;;;;;7369571;19;20336;-73
2022/11/08 07:11:01;;;;;;;2.42;2.13;;;7.40;99.90;;;;;;7366721;19;20360;-75
2022/11/08 07:13:27;;;;;;;1.93;1.80;;;7.50;99.90;;;;;;7367136;19;20357;-76
2022/11/08 07:15:58;;;;;;;2.42;1.80;;;7.60;99.90;;;;;;7373524;19;20335;-74
2022/11/08 07:18:24;;;;;;;3.53;2.20;;;7.60;99.90;;;;;;7366489;19;20344;-76
2022/11/08 07:20:49;;;;;;;2.43;1.90;;;7.70;99.90;;;;;;7369963;19;20317;-75
2022/11/08 07:23:15;;;;;;;2.17;1.90;;;7.70;99.90;;;;;;7364159;19;20316;-74
2022/11/08 07:25:40;;;;;;;3.17;1.95;;;7.70;99.90;;;;;;7368090;19;20324;-75
2022/11/08 07:28:07;;;;;;;2.20;1.73;;;7.80;99.90;;;;;;7365825;19;20881;-77
2022/11/08 07:30:33;;;;;;;1.92;1.67;;;7.80;99.90;;;;;;7367832;19;20323;-74
2022/11/08 07:32:59;;;;;;;2.10;1.90;;;7.90;99.90;;;;;;7363606;19;20348;-75
2022/11/08 07:35:26;;;;;;;2.23;1.77;;;7.90;99.90;;;;;;7369021;19;20336;-75
2022/11/08 07:37:52;;;;;;;5.10;2.25;;;8.00;99.90;;;;;;7369188;19;20325;-74
2022/11/08 07:40:17;;;;;;;2.42;1.80;;;8.00;99.90;;;;;;7367921;19;20360;-74
2022/11/08 07:42:43;;;;;;;2.10;1.90;;;8.00;99.90;;;;;;7365602;19;20328;-73
2022/11/08 07:45:10;;;;;;;1.50;1.40;;;8.00;99.90;;;;;;7367807;19;20332;-72
2022/11/08 07:47:35;;;;;;;2.47;1.70;;;8.00;99.90;;;;;;7367135;19;20333;-72
2022/11/08 07:50:01;;;;;;;2.30;2.10;;;8.10;99.90;;;;;;7368349;19;20798;-72
2022/11/08 07:52:27;;;;;;;1.80;1.70;;;8.10;99.90;;;;;;7363717;19;20340;-73
2022/11/08 07:54:52;;;;;;;2.00;1.83;;;8.10;99.90;;;;;;7368901;19;20333;-73
2022/11/08 07:57:18;;;;;;;4.10;2.30;;;8.10;99.90;;;;;;7369594;19;20450;-74
2022/11/08 07:59:43;;;;;;;2.33;1.90;;;8.20;99.90;;;;;;7368609;19;20353;-73
2022/11/08 08:02:12;;;;;;;3.15;2.47;;;8.30;99.90;;;;;;7363160;19;20348;-75
2022/11/08 08:04:37;;;;;;;3.47;2.10;;;8.30;99.90;;;;;;7366948;19;20353;-76
2022/11/08 08:07:03;;;;;;;2.40;2.08;;;8.40;99.90;;;;;;7367265;19;20354;-77
2022/11/08 08:09:29;;;;;;;2.33;2.10;;;8.40;99.90;;;;;;7367871;19;20358;-72
2022/11/08 08:11:54;;;;;;;3.37;2.60;;;8.50;99.90;;;;;;7360831;19;20325;-74
2022/11/08 08:14:20;;;;;;;3.70;2.28;;;8.60;99.90;;;;;;7369480;19;20312;-75
2022/11/08 08:16:45;;;;;;;2.20;2.00;;;8.70;99.90;;;;;;7368867;19;22152;-74
2022/11/08 08:19:11;;;;;;;2.78;2.17;;;8.80;99.90;;;;;;7369725;19;20677;-73
2022/11/08 08:21:36;;;;;;;3.07;2.10;;;8.90;99.90;;;;;;7360451;19;20352;-73
2022/11/08 08:24:02;;;;;;;2.77;2.20;;;9.00;99.90;;;;;;7365278;19;20352;-74
2022/11/08 08:26:28;;;;;;;2.70;2.13;;;9.00;99.90;;;;;;7368000;19;20336;-74
2022/11/08 08:28:53;;;;;;;3.90;2.00;;;9.20;99.90;;;;;;7368076;19;20328;-74
2022/11/08 08:31:19;;;;;;;2.47;1.90;;;9.20;99.90;;;;;;7362633;19;20328;-76
2022/11/08 08:33:44;;;;;;;2.07;1.87;;;9.30;99.90;;;;;;7367085;19;20344;-74
2022/11/08 08:36:10;;;;;;;2.67;2.00;;;9.30;99.90;;;;;;7366244;19;20352;-74
2022/11/08 08:38:36;;;;;;;3.92;2.10;;;9.40;99.90;;;;;;7368037;19;20333;-75
2022/11/08 08:41:01;;;;;;;3.70;2.03;;;9.50;99.90;;;;;;7366563;19;20992;-75
2022/11/08 08:43:28;;;;;;;2.75;2.05;;;9.60;99.90;;;;;;7361857;19;20748;-74
2022/11/08 08:45:56;;;;;;;3.50;2.10;;;9.80;99.90;;;;;;7366400;19;21154;-74
2022/11/08 08:48:22;;;;;;;3.15;1.95;;;9.90;99.90;;;;;;7366537;19;20333;-75
2022/11/08 08:50:48;;;;;;;3.07;2.20;;;10.00;99.90;;;;;;7367984;19;20329;-74
2022/11/08 08:53:13;;;;;;;2.13;1.80;;;10.10;99.90;;;;;;7363390;19;20325;-74
2022/11/08 08:55:40;;;;;;;2.78;1.98;;;10.20;99.90;;;;;;7368222;19;21155;-74
2022/11/08 08:58:06;;;;;;;2.83;2.37;;;10.30;99.90;;;;;;7367695;19;20423;-76
2022/11/08 09:00:31;;;;;;;4.25;2.20;;;10.40;99.90;;;;;;7366220;19;20343;-76
2022/11/08 09:03:04;;;;;;;2.53;2.20;;;10.50;99.90;;;;;;7362502;19;20695;-77
2022/11/08 09:05:30;;;;;;;2.10;1.50;;;10.60;99.90;;;;;;7367022;19;21213;-77
2022/11/08 09:07:56;;;;;;;2.33;1.80;;;10.70;99.90;;;;;;7367958;19;20404;-73
2022/11/08 09:10:21;;;;;;;3.67;2.10;;;10.80;99.90;;;;;;7364048;19;20328;-73
2022/11/08 09:12:48;;;;;;;4.50;1.97;;;10.90;99.90;;;;;;7362956;19;20349;-72
2022/11/08 09:15:14;;;;;;;2.40;2.20;;;11.00;99.90;;;;;;7367817;19;20341;-73
2022/11/08 09:17:40;;;;;;;2.83;2.10;;;11.10;99.90;;;;;;7366851;19;20997;-73
2022/11/08 09:20:06;;;;;;;2.10;1.90;;;11.20;99.90;;;;;;7366069;19;20420;-73
2022/11/08 09:22:32;;;;;;;1.80;1.70;;;11.30;99.90;;;;;;7365985;19;20857;-75
2022/11/08 09:24:58;;;;;;;2.50;1.92;;;11.40;99.90;;;;;;7371033;19;20336;-74
2022/11/08 09:27:23;;;;;;;2.45;1.63;;;11.50;99.90;;;;;;7373881;19;20333;-74
2022/11/08 09:29:49;;;;;;;2.43;1.83;;;11.60;99.90;;;;;;7373880;19;21453;-74
2022/11/08 09:32:14;;;;;;;2.60;1.93;;;11.70;99.90;;;;;;7369625;19;20345;-76
2022/11/08 09:34:40;;;;;;;2.65;1.58;;;11.90;99.90;;;;;;7375375;19;20352;-74
2022/11/08 09:37:06;;;;;;;2.63;2.07;;;12.00;99.90;;;;;;7376965;19;20332;-73
2022/11/08 09:39:31;;;;;;;3.33;1.67;;;12.10;99.90;;;;;;7374630;19;20972;-73
2022/11/08 09:42:07;;;;;;;2.95;1.60;;;12.20;99.90;;;;;;7367757;19;20333;-73
2022/11/08 09:45:02;;;;;;;2.42;1.60;;;12.40;99.90;;;;;;7370410;19;20339;-73
2022/11/08 09:47:36;;;;;;;3.13;1.73;;;12.50;99.90;;;;;;7268167;19;2004610;-73
2022/11/08 09:50:24;;;;;;;2.30;1.80;;;12.60;99.90;;;;;;7370994;19;20371;-73
2022/11/08 09:53:34;;;;;;;2.03;1.60;;;12.80;99.90;;;;;;7366058;19;20343;-74
2022/11/08 09:56:20;;;;;;;2.05;1.55;;;12.90;99.90;;;;;;7166398;19;2004419;-76
2022/11/08 09:59:11;;;;;;;2.00;1.57;;;12.90;99.90;;;;;;7362646;19;20319;-76
2022/11/08 10:01:38;;;;;;;4.88;1.55;;;13.10;99.90;;;;;;7262178;19;2013862;-75
2022/11/08 10:04:11;;;;;;;1.80;1.50;;;13.30;99.90;;;;;;7369135;19;20376;-76
2022/11/08 10:06:57;;;;;;;1.55;1.45;;;13.30;99.90;;;;;;7369113;19;20348;-76
2022/11/08 10:10:07;;;;;;;2.33;1.52;;;13.40;99.90;;;;;;7266256;19;2009044;-75
2022/11/08 10:12:45;;;;;;;2.08;1.50;;;13.60;99.90;;;;;;7265525;19;2004325;-75
2022/11/08 10:15:16;;;;;;;3.42;1.50;;;13.70;99.90;;;;;;7370670;19;20341;-74
2022/11/08 10:17:54;;;;;;;1.67;1.50;;;13.80;99.90;;;;;;7369588;19;20705;-75
2022/11/08 10:20:35;;;;;;;2.45;1.52;;;13.90;99.90;;;;;;7365871;19;20403;-76
2022/11/08 10:23:23;;;;;;;2.88;1.70;;;14.00;99.90;;;;;;7265083;19;2004492;-75
2022/11/08 10:26:03;;;;;;;2.10;1.40;;;14.00;99.90;;;;;;7368239;19;20330;-75
2022/11/08 10:28:36;;;;;;;2.60;1.60;;;14.10;99.90;;;;;;7267044;19;2019921;-74
2022/11/08 10:31:01;;;;;;;2.70;1.53;;;14.10;99.90;;;;;;7368523;19;20335;-75
2022/11/08 10:33:33;;;;;;;2.05;1.60;;;14.10;99.90;;;;;;7366747;19;20325;-74
2022/11/08 10:36:01;;;;;;;1.50;1.40;;;14.20;99.90;;;;;;7369689;19;20333;-74
2022/11/08 10:38:35;;;;;;;2.03;1.47;;;14.20;99.90;;;;;;7367950;19;21363;-74
2022/11/08 10:41:09;;;;;;;1.85;1.38;;;14.40;99.90;;;;;;7367160;19;21385;-75
2022/11/08 10:43:40;;;;;;;2.40;1.40;;;14.50;99.90;;;;;;7367156;19;20325;-76
2022/11/08 10:46:31;;;;;;;1.73;1.50;;;14.50;99.90;;;;;;7369846;19;20439;-74
2022/11/08 10:49:04;;;;;;;1.90;1.48;;;14.60;99.90;;;;;;7265383;19;2019982;-73
2022/11/08 10:51:29;;;;;;;1.83;1.50;;;14.80;99.90;;;;;;7364012;19;20723;-74
2022/11/08 10:53:55;;;;;;;1.73;1.40;;;14.90;99.90;;;;;;7368364;19;21502;-74
2022/11/08 10:56:22;;;;;;;2.70;1.58;;;15.00;99.90;;;;;;7369619;19;20345;-73
2022/11/08 10:58:48;;;;;;;2.38;1.50;;;15.10;99.90;;;;;;7366172;19;20325;-73
2022/11/08 11:01:18;;;;;;;1.90;1.40;;;15.20;99.90;;;;;;7363746;19;20328;-73
2022/11/08 11:03:44;;;;;;;2.70;1.70;;;15.30;99.90;;;;;;7367078;19;20866;-73
2022/11/08 11:06:24;;;;;;;2.10;1.50;;;15.40;99.90;;;;;;7367613;19;20325;-73
2022/11/08 11:08:52;;;;;;;2.17;1.40;;;15.60;99.90;;;;;;7366793;19;20862;-73
2022/11/08 11:11:23;;;;;;;2.53;1.60;;;15.60;99.90;;;;;;7360707;19;20478;-73
2022/11/08 11:14:22;;;;;;;2.93;1.57;;;15.70;99.90;;;;;;7367311;19;20588;-73
2022/11/08 11:16:58;;;;;;;2.40;1.60;;;15.70;99.90;;;;;;7265163;19;2019081;-74
2022/11/08 11:19:24;;;;;;;1.67;1.40;;;15.80;99.90;;;;;;7266392;19;2020166;-77
2022/11/08 11:22:08;;;;;;;3.57;1.50;;;15.80;99.90;;;;;;7364788;19;20932;-75
2022/11/08 11:25:00;;;;;;;2.45;1.30;;;15.90;99.90;;;;;;7259672;19;2019966;-76
2022/11/08 11:27:30;;;;;;;2.42;1.50;;;16.00;99.90;;;;;;7265085;19;2004683;-77
2022/11/08 11:30:21;;;;;;;2.42;1.50;;;16.10;99.90;;;;;;7369655;19;20333;-75
2022/11/08 11:33:16;;;;;;;1.83;1.48;;;16.10;99.90;;;;;;7363363;19;20419;-73
2022/11/08 11:36:03;;;;;;;1.73;1.57;;;16.10;99.90;;;;;;7265882;19;2004384;-73
2022/11/08 11:38:37;;;;;;;2.15;1.40;;;16.20;99.90;;;;;;7263790;19;2004490;-73
2022/11/08 11:41:10;;;;;;;3.72;1.50;;;16.30;99.90;;;;;;7366385;19;20335;-74
2022/11/08 11:43:58;;;;;;;2.30;1.38;;;16.40;99.90;;;;;;7363393;19;20407;-73
2022/11/08 11:46:28;;;;;;;2.55;1.50;;;16.50;99.90;;;;;;7262629;19;2004678;-73
2022/11/08 11:49:01;;;;;;;1.50;1.27;;;16.60;99.90;;;;;;7366847;19;20333;-73
2022/11/08 11:51:28;;;;;;;3.37;1.73;;;16.80;99.90;;;;;;7362405;19;20917;-74
2022/11/08 11:53:53;;;;;;;4.32;1.58;;;16.80;99.90;;;;;;7366163;19;20339;-73
2022/11/08 11:56:47;;;;;;;1.93;1.60;;;16.70;99.90;;;;;;7367620;19;20364;-73
2022/11/08 11:59:28;;;;;;;2.63;1.73;;;16.70;99.90;;;;;;7264965;19;2019962;-73
2022/11/08 12:02:21;;;;;;;2.25;1.30;;;16.80;99.90;;;;;;7262101;19;2020036;-76
2022/11/08 12:05:06;;;;;;;3.85;1.80;;;16.70;99.90;;;;;;7369562;19;20360;-76
2022/11/08 12:07:32;;;;;;;2.92;1.40;;;16.80;99.90;;;;;;7265652;19;2019323;-75
2022/11/08 12:10:24;;;;;;;1.48;1.38;;;16.80;99.90;;;;;;7367811;19;20341;-75
2022/11/08 12:13:09;;;;;;;2.07;1.37;;;16.80;99.90;;;;;;7360244;19;20331;-79
2022/11/08 12:15:40;;;;;;;3.90;1.65;;;16.80;99.90;;;;;;7263613;19;2004359;-74
2022/11/08 12:18:05;;;;;;;1.65;1.55;;;16.90;99.90;;;;;;7367870;19;20332;-75
2022/11/08 12:20:59;;;;;;;2.13;1.45;;;16.80;99.90;;;;;;7368219;19;20361;-75
2022/11/08 12:23:56;;;;;;;1.67;1.35;;;16.70;99.90;;;;;;7259035;19;2004680;-74
2022/11/08 12:26:32;;;;;;;2.00;1.40;;;16.60;99.90;;;;;;7367587;19;20320;-74
2022/11/08 12:29:23;;;;;;;1.63;1.52;;;16.70;99.90;;;;;;7266078;19;2004423;-75
2022/11/08 12:32:17;;;;;;;2.60;1.33;;;16.60;99.90;;;;;;7362461;19;20313;-76
2022/11/08 12:34:49;;;;;;;2.72;1.52;;;16.70;99.90;;;;;;7262808;19;2019087;-76
2022/11/08 12:37:32;;;;;;;2.78;1.52;;;16.60;99.90;;;;;;7366333;19;20413;-77
2022/11/08 12:40:22;;;;;;;2.45;1.60;;;16.60;99.90;;;;;;7261949;19;2019141;-74
2022/11/08 12:43:04;;;;;;;2.47;1.60;;;16.60;99.90;;;;;;7363001;19;20331;-74
2022/11/08 12:45:57;;;;;;;3.67;1.80;;;16.60;99.90;;;;;;7262907;19;2004585;-75
2022/11/08 12:48:49;;;;;;;2.08;1.40;;;16.60;99.90;;;;;;7264408;19;2004507;-74
2022/11/08 12:51:26;;;;;;;2.33;1.67;;;16.70;99.90;;;;;;7361190;19;20825;-76
2022/11/08 12:54:13;;;;;;;2.15;1.70;;;16.70;99.90;;;;;;7262256;19;2004309;-75
2022/11/08 12:56:43;;;;;;;1.63;1.40;;;16.80;99.90;;;;;;7366891;19;20352;-77
2022/11/08 12:59:29;;;;;;;2.60;1.40;;;16.80;99.90;;;;;;7372222;19;20336;-73
2022/11/08 13:01:54;;;;;;;2.38;1.67;;;16.90;99.90;;;;;;7265863;19;2004390;-72
2022/11/08 13:04:25;;;;;;;1.80;1.60;;;16.90;99.90;;;;;;7371518;19;20324;-73
2022/11/08 13:07:05;;;;;;;2.28;1.70;;;17.00;99.90;;;;;;7370866;19;20914;-73
2022/11/08 13:09:44;;;;;;;2.17;1.40;;;17.00;99.90;;;;;;7269103;19;2020335;-73
2022/11/08 13:12:51;;;;;;;1.38;1.23;;;16.90;99.90;;;;;;7371712;19;20356;-82
2022/11/08 13:15:22;;;;;;;2.57;1.70;;;16.80;99.90;;;;;;7272499;19;2004384;-78
2022/11/08 13:18:06;;;;;;;3.97;2.33;;;16.80;99.90;;;;;;7378490;19;20320;-75
2022/11/08 13:20:40;;;;;;;1.80;1.52;;;16.80;99.90;;;;;;7268785;19;2006896;-74
2022/11/08 13:23:30;;;;;;;3.55;1.58;;;16.70;99.90;;;;;;7367823;19;20363;-75
2022/11/08 13:26:18;;;;;;;2.90;1.60;;;16.60;99.90;;;;;;7269412;19;2004265;-73
2022/11/08 13:28:44;;;;;;;1.85;1.33;;;16.60;99.90;;;;;;7369218;19;20431;-73
2022/11/08 13:31:27;;;;;;;3.20;1.70;;;16.60;99.90;;;;;;7367271;19;20325;-74
2022/11/08 13:34:20;;;;;;;3.30;1.65;;;16.80;99.90;;;;;;7265473;19;2004860;-74
2022/11/08 13:36:59;;;;;;;1.40;1.30;;;16.70;99.90;;;;;;7369725;19;20415;-74
2022/11/08 13:39:39;;;;;;;1.40;1.30;;;16.70;99.90;;;;;;7266778;19;2019795;-73
2022/11/08 13:42:33;;;;;;;2.20;1.30;;;16.60;99.90;;;;;;7367232;19;20344;-72
2022/11/08 13:45:13;;;;;;;3.63;1.65;;;16.50;99.90;;;;;;7269819;19;2004399;-73
2022/11/08 13:47:41;;;;;;;2.33;1.40;;;16.40;99.90;;;;;;7372394;19;21429;-73